Time;durP1;ratioP1;P1;durP2;ratioP2;P2;SDS_P1;SDS_P2;PMS_P1;PMS_P2;Temp;Humidity;BMP_temperature;BMP_pressure;BME280_temperature;BME280_humidity;BME280_pressure;Samples;Min_cycle;Max_cycle;Signal;HPM_P1;HPM_P2
2022/07/28 00:00:13;;;;;;;14.90;2.47;;;;;;;24.12;35.06;98344.13;5051535;28;20051;-48
2022/07/28 00:02:38;;;;;;;14.77;1.90;;;;;;;24.14;35.04;98341.94;5033684;28;20029;-46
2022/07/28 00:05:05;;;;;;;14.13;2.53;;;;;;;24.19;34.93;98341.06;5051618;28;20048;-48
2022/07/28 00:07:31;;;;;;;22.83;2.65;;;;;;;24.12;35.05;98336.84;5053910;28;20452;-47
2022/07/28 00:09:56;;;;;;;13.68;1.80;;;;;;;24.07;35.26;98342.34;5055711;28;20029;-47
2022/07/28 00:12:22;;;;;;;19.30;1.73;;;;;;;23.96;35.14;98335.56;5055516;28;20028;-48
2022/07/28 00:14:47;;;;;;;9.38;1.85;;;;;;;23.82;35.58;98337.44;5055523;28;20067;-47
2022/07/28 00:17:13;;;;;;;19.42;2.28;;;;;;;23.74;35.51;98328.16;5055632;28;20029;-48
2022/07/28 00:19:39;;;;;;;8.30;1.35;;;;;;;23.68;35.92;98329.34;5037612;28;20017;-48
2022/07/28 00:22:06;;;;;;;19.15;2.15;;;;;;;23.60;35.78;98324.66;5055502;28;20021;-47
2022/07/28 00:24:33;;;;;;;20.33;1.95;;;;;;;23.51;36.40;98324.56;5055368;28;20509;-47
2022/07/28 00:26:59;;;;;;;18.52;1.75;;;;;;;23.43;36.28;98322.56;5073621;28;20520;-48
2022/07/28 00:29:25;;;;;;;26.10;2.22;;;;;;;23.40;36.63;98317.78;5075294;28;20021;-48
2022/07/28 00:31:54;;;;;;;17.48;1.90;;;;;;;23.41;36.70;98324.72;5075305;28;20103;-48
2022/07/28 00:34:20;;;;;;;13.93;2.17;;;;;;;23.40;36.07;98323.13;5057272;28;20103;-48
2022/07/28 00:36:45;;;;;;;8.50;1.95;;;;;;;23.29;36.27;98334.00;5075121;28;20119;-48
2022/07/28 00:39:11;;;;;;;12.13;1.30;;;;;;;23.07;36.59;98331.94;5057195;28;20031;-48
2022/07/28 00:41:37;;;;;;;16.05;2.15;;;;;;;22.81;37.05;98333.38;5075078;28;20035;-48
2022/07/28 00:44:06;;;;;;;8.77;1.55;;;;;;;22.58;37.63;98343.03;5075060;28;20097;-47
2022/07/28 00:46:32;;;;;;;6.63;1.35;;;;;;;22.31;38.85;98342.56;5074952;28;20040;-47
2022/07/28 00:48:57;;;;;;;8.13;1.73;;;;;;;22.07;39.34;98342.56;5074935;28;20029;-48
2022/07/28 00:51:25;;;;;;;3.20;1.38;;;;;;;21.84;40.27;98340.66;5074867;28;20393;-48
2022/07/28 00:53:52;;;;;;;4.72;1.45;;;;;;;21.62;40.52;98341.91;5074900;28;20025;-47
2022/07/28 00:56:18;;;;;;;5.63;1.55;;;;;;;21.46;41.47;98335.91;5074755;28;20028;-47
2022/07/28 00:58:46;;;;;;;4.65;1.48;;;;;;;21.21;42.21;98341.41;5074839;28;20513;-48
2022/07/28 01:01:19;;;;;;;9.70;1.58;;;;;;;21.05;42.55;98338.09;5074773;28;20490;-48
2022/07/28 01:03:55;;;;;;;7.43;1.52;;;;;;;21.00;44.44;98343.44;5074774;28;20087;-47
2022/07/28 01:06:47;;;;;;;7.07;1.40;;;;;;;20.65;45.96;98346.03;5074868;28;20375;-47
2022/07/28 01:09:37;;;;;;;8.55;1.65;;;;;;;19.95;48.03;98340.66;5074547;28;20029;-49
2022/07/28 01:12:27;;;;;;;4.78;1.52;;;;;;;19.46;49.98;98347.34;5074563;28;20020;-50
2022/07/28 01:15:08;;;;;;;5.75;1.50;;;;;;;19.04;51.07;98348.38;5056478;28;20478;-50
2022/07/28 01:17:51;;;;;;;3.63;1.40;;;;;;;18.66;53.09;98345.06;5056430;28;20056;-50
2022/07/28 01:20:38;;;;;;;4.60;1.70;;;;;;;18.37;52.69;98355.31;5074442;28;20032;-50
2022/07/28 01:23:24;;;;;;;8.23;2.28;;;;;;;18.25;53.13;98346.75;5074667;28;20418;-48
2022/07/28 01:25:53;;;;;;;3.13;1.65;;;;;;;18.22;53.11;98344.63;5047139;28;20139;-50
2022/07/28 01:28:56;;;;;;;5.97;1.63;;;;;;;18.25;53.39;98344.09;5054218;28;20082;-50
2022/07/28 01:31:25;;;;;;;6.28;1.60;;;;;;;18.31;52.31;98340.41;5036270;28;20040;-50
2022/07/28 01:33:55;;;;;;;6.57;1.30;;;;;;;18.38;52.25;98350.81;5036207;28;20017;-50
2022/07/28 01:36:25;;;;;;;7.38;1.92;;;;;;;18.45;51.83;98346.88;5054023;28;20079;-50
2022/07/28 01:38:52;;;;;;;4.68;1.23;;;;;;;18.50;51.89;98346.88;5054093;28;20029;-50
2022/07/28 01:41:20;;;;;;;3.38;1.38;;;;;;;18.54;51.73;98339.97;5036056;28;20021;-50
2022/07/28 01:43:58;;;;;;;3.90;1.52;;;;;;;18.58;51.73;98342.13;5053982;28;20017;-50
2022/07/28 01:46:25;;;;;;;4.97;1.48;;;;;;;18.57;51.62;98333.34;5035976;28;20082;-50
2022/07/28 01:48:53;;;;;;;6.20;1.60;;;;;;;18.65;51.61;98337.34;5035986;28;20516;-49
2022/07/28 01:51:21;;;;;;;4.20;1.48;;;;;;;18.73;50.66;98337.66;5035920;28;20025;-50
2022/07/28 01:53:50;;;;;;;3.47;1.25;;;;;;;18.67;50.81;98338.72;5053800;28;20032;-50
2022/07/28 01:56:19;;;;;;;4.95;1.90;;;;;;;18.55;50.82;98328.31;5035718;28;20021;-50
2022/07/28 01:58:48;;;;;;;3.85;1.33;;;;;;;18.53;51.02;98330.41;5053750;28;20067;-50
2022/07/28 02:01:15;;;;;;;3.13;1.20;;;;;;;18.58;50.95;98334.16;5053638;28;20021;-50
2022/07/28 02:03:44;;;;;;;5.68;1.60;;;;;;;18.59;50.92;98336.53;5053632;28;20029;-50
2022/07/28 02:06:12;;;;;;;3.97;1.48;;;;;;;18.57;50.95;98325.34;5053601;28;20029;-50
2022/07/28 02:08:39;;;;;;;6.32;1.58;;;;;;;18.56;51.02;98331.75;5053437;28;20036;-50
2022/07/28 02:13:52;;;;;;;7.35;1.35;;;;;;;18.53;51.29;98340.22;5053782;28;20521;-50
2022/07/28 02:16:23;;;;;;;7.00;1.60;;;;;;;18.50;51.18;98338.09;5053264;28;20025;-50
2022/07/28 02:18:52;;;;;;;4.75;1.50;;;;;;;18.50;51.13;98330.13;5053414;28;20036;-50
2022/07/28 02:21:20;;;;;;;7.68;1.83;;;;;;;18.51;51.01;98337.84;5053267;28;20028;-50
2022/07/28 02:23:49;;;;;;;2.05;1.13;;;;;;;18.52;50.65;98326.16;5035325;28;20029;-48
2022/07/28 02:26:17;;;;;;;6.78;1.70;;;;;;;18.43;50.90;98334.88;5056130;28;20040;-50
2022/07/28 02:28:46;;;;;;;4.03;1.33;;;;;;;18.32;51.12;98332.19;5071763;28;20122;-49
2022/07/28 02:31:24;;;;;;;6.63;2.00;;;;;;;18.29;51.36;98340.69;5070972;28;20021;-50
2022/07/28 02:33:53;;;;;;;5.38;1.40;;;;;;;18.31;51.46;98340.41;5073015;28;20021;-50
2022/07/28 02:36:44;;;;;;;6.68;1.50;;;;;;;18.30;51.56;98336.16;5072818;28;20028;-50
2022/07/28 02:39:20;;;;;;;2.00;1.15;;;;;;;18.28;51.35;98339.06;5071569;28;20024;-50
2022/07/28 02:41:54;;;;;;;4.43;1.30;;;;;;;18.20;51.40;98333.47;5072818;28;20523;-50
2022/07/28 02:44:27;;;;;;;6.35;1.52;;;;;;;18.09;51.67;98337.91;5072836;28;20031;-48
2022/07/28 02:46:57;;;;;;;3.70;1.65;;;;;;;17.97;51.95;98330.16;5071414;28;20024;-50
2022/07/28 02:49:30;;;;;;;4.90;1.60;;;;;;;17.86;52.43;98329.28;5072615;28;20101;-50
2022/07/28 02:51:59;;;;;;;3.55;1.55;;;;;;;17.82;52.83;98328.19;5072934;28;20040;-50
2022/07/28 02:54:27;;;;;;;4.93;1.48;;;;;;;17.80;52.98;98322.31;5072538;28;20020;-50
2022/07/28 02:56:56;;;;;;;8.48;2.28;;;;;;;17.86;53.04;98328.50;5071009;28;20067;-50
2022/07/28 02:59:23;;;;;;;3.30;1.70;;;;;;;17.90;52.96;98324.28;5072464;28;20028;-49
2022/07/28 03:01:49;;;;;;;4.47;1.60;;;;;;;17.91;52.68;98331.19;5071086;28;20492;-50
2022/07/28 03:04:55;;;;;;;3.00;1.45;;;;;;;17.89;52.58;98334.09;5072427;28;20048;-50
2022/07/28 03:07:03;;;;;;;3.67;1.50;;;;;;;17.91;52.73;98333.84;5072052;28;20077;-49
2022/07/28 03:09:29;;;;;;;3.58;1.80;;;;;;;17.91;52.79;98331.19;5072266;28;20095;-50
2022/07/28 03:11:55;;;;;;;5.35;1.77;;;;;;;17.93;52.65;98329.88;5070882;28;20031;-50
2022/07/28 03:14:21;;;;;;;7.53;1.98;;;;;;;17.93;53.00;98329.88;5070911;28;20119;-50
2022/07/28 03:16:46;;;;;;;6.03;1.25;;;;;;;17.89;52.75;98331.44;5070794;28;20054;-50
2022/07/28 03:19:12;;;;;;;5.70;1.52;;;;;;;17.86;52.97;98337.25;5070861;28;20033;-50
2022/07/28 03:21:40;;;;;;;4.45;1.55;;;;;;;17.83;53.38;98343.09;5072113;28;20024;-50
2022/07/28 03:24:09;;;;;;;5.65;1.83;;;;;;;17.79;53.30;98344.63;5072112;28;20035;-50
2022/07/28 03:26:48;;;;;;;5.55;1.52;;;;;;;17.76;53.27;98345.13;5071655;28;20052;-50
2022/07/28 03:29:16;;;;;;;3.35;1.33;;;;;;;17.74;53.27;98337.41;5072038;28;20107;-50
2022/07/28 03:31:46;;;;;;;6.13;1.95;;;;;;;17.66;53.34;98340.53;5071886;28;20032;-50
2022/07/28 03:34:13;;;;;;;5.15;1.70;;;;;;;17.59;53.60;98337.31;5053960;28;20025;-50
2022/07/28 03:36:44;;;;;;;5.35;1.45;;;;;;;17.55;53.87;98344.19;5071891;28;20033;-49
2022/07/28 03:39:14;;;;;;;3.50;1.45;;;;;;;17.47;53.91;98348.13;5071973;28;20569;-50
2022/07/28 03:41:42;;;;;;;5.22;1.35;;;;;;;17.38;54.35;98339.00;5071224;28;20032;-49
2022/07/28 03:44:11;;;;;;;4.00;1.70;;;;;;;17.29;54.55;98349.28;5071852;28;20023;-49
2022/07/28 03:46:45;;;;;;;3.10;1.60;;;;;;;17.19;54.87;98357.16;5071771;28;20024;-49
2022/07/28 03:49:11;;;;;;;3.10;1.77;;;;;;;17.11;55.20;98358.41;5053875;28;20029;-49
2022/07/28 03:51:37;;;;;;;6.25;1.77;;;;;;;17.09;55.55;98363.16;5072037;28;20107;-50
2022/07/28 03:54:03;;;;;;;4.00;1.77;;;;;;;17.08;55.47;98356.28;5053724;28;20048;-49
2022/07/28 03:56:31;;;;;;;5.03;1.63;;;;;;;17.04;55.73;98360.44;5071741;28;20029;-49
2022/07/28 03:58:57;;;;;;;6.47;2.05;;;;;;;17.03;55.80;98366.81;5053656;28;20036;-50
2022/07/28 04:01:22;;;;;;;4.78;1.67;;;;;;;17.07;55.84;98367.13;5053587;28;20255;-50
2022/07/28 04:03:48;;;;;;;6.82;1.75;;;;;;;17.10;55.60;98372.72;5071657;28;20493;-50
2022/07/28 04:06:14;;;;;;;6.15;1.80;;;;;;;17.14;55.35;98368.53;5053562;28;20027;-50
2022/07/28 04:08:40;;;;;;;2.38;1.42;;;;;;;17.11;55.36;98366.34;5053640;28;20441;-50
2022/07/28 04:11:06;;;;;;;7.30;1.60;;;;;;;17.04;55.53;98370.25;5053553;28;20082;-50
2022/07/28 04:13:35;;;;;;;4.90;1.70;;;;;;;16.95;55.80;98373.34;5053573;28;20016;-50
2022/07/28 04:16:02;;;;;;;6.20;1.48;;;;;;;16.89;56.25;98371.72;5071532;28;20078;-50
2022/07/28 04:18:27;;;;;;;3.95;1.40;;;;;;;16.87;56.09;98373.00;5071524;28;20025;-50
2022/07/28 04:20:54;;;;;;;4.55;1.90;;;;;;;16.86;56.14;98371.41;5071488;28;20033;-49
2022/07/28 04:23:23;;;;;;;7.35;2.67;;;;;;;16.86;56.31;98374.03;5071414;28;20029;-49
2022/07/28 04:25:49;;;;;;;5.50;1.85;;;;;;;16.88;56.28;98382.56;5044521;28;20413;-50
2022/07/28 04:28:15;;;;;;;5.72;2.40;;;;;;;16.85;56.15;98365.31;5033423;28;20131;-50
2022/07/28 04:30:40;;;;;;;3.58;1.83;;;;;;;16.83;56.08;98367.41;5033435;28;20032;-50
2022/07/28 04:33:06;;;;;;;1.95;1.52;;;;;;;16.85;56.37;98370.59;5051367;28;20017;-50
2022/07/28 04:35:33;;;;;;;6.30;1.80;;;;;;;16.86;56.36;98374.03;5051299;28;20064;-50
2022/07/28 04:38:00;;;;;;;5.57;1.73;;;;;;;16.91;56.40;98371.47;5051280;28;20395;-50
2022/07/28 04:40:26;;;;;;;4.47;2.00;;;;;;;17.02;56.02;98372.34;5033276;28;20494;-50
2022/07/28 04:42:52;;;;;;;6.65;1.60;;;;;;;17.08;56.04;98376.66;5051213;28;20573;-50
2022/07/28 04:45:19;;;;;;;7.85;1.98;;;;;;;17.09;55.81;98383.56;5033255;28;20021;-50
2022/07/28 04:47:44;;;;;;;8.98;2.00;;;;;;;17.27;55.36;98382.44;5051286;28;20364;-50
2022/07/28 04:50:14;;;;;;;10.60;2.00;;;;;;;17.85;53.84;98380.81;5051196;28;20035;-50
2022/07/28 04:52:40;;;;;;;8.40;2.15;;;;;;;18.54;51.86;98385.16;5051803;28;20439;-49
2022/07/28 04:55:07;;;;;;;9.55;2.25;;;;;;;19.15;50.48;98386.44;5054844;28;20028;-50
2022/07/28 04:57:32;;;;;;;24.98;3.08;;;;;;;19.67;48.84;98374.75;5055122;28;20567;-50
2022/07/28 04:59:59;;;;;;;12.85;2.30;;;;;;;20.22;47.82;98376.81;5036946;28;20033;-49
2022/07/28 05:02:25;;;;;;;24.60;2.42;;;;;;;21.00;46.30;98378.91;5054661;28;20568;-49
2022/07/28 05:04:50;;;;;;;8.68;2.03;;;;;;;21.74;44.97;98385.06;5036862;28;20033;-50
2022/07/28 05:07:16;;;;;;;45.55;4.70;;;;;;;22.31;43.25;98387.22;5054641;28;20387;-50
2022/07/28 05:09:42;;;;;;;149.38;11.50;;;;;;;22.79;42.70;98389.06;5054615;28;20024;-50
2022/07/28 05:12:08;;;;;;;30.90;3.50;;;;;;;23.16;41.86;98390.19;5054548;28;20025;-50
2022/07/28 05:14:33;;;;;;;20.02;2.90;;;;;;;23.32;41.23;98384.31;5054570;28;20079;-49
2022/07/28 05:16:59;;;;;;;24.88;3.38;;;;;;;23.36;40.92;98376.47;5054415;28;20028;-50
2022/07/28 05:19:25;;;;;;;8.43;2.30;;;;;;;23.53;40.79;98384.00;5036490;28;20436;-51
2022/07/28 05:21:50;;;;;;;5.85;1.77;;;;;;;23.86;39.36;98384.78;5036508;28;20033;-50
2022/07/28 05:24:16;;;;;;;6.82;1.80;;;;;;;24.18;38.54;98380.47;5054342;28;20491;-50
2022/07/28 05:26:42;;;;;;;9.45;2.03;;;;;;;24.44;37.58;98379.97;5069893;28;20054;-50
2022/07/28 05:29:07;;;;;;;3.75;1.73;;;;;;;24.53;37.19;98380.91;5074232;28;20021;-49
2022/07/28 05:31:33;;;;;;;10.60;2.95;;;;;;;24.67;37.04;98381.69;5056242;28;20060;-50
2022/07/28 05:33:59;;;;;;;7.05;1.63;;;;;;;24.99;36.43;98381.81;5056447;28;20027;-51
2022/07/28 05:36:25;;;;;;;5.07;1.65;;;;;;;25.30;35.67;98385.41;5074132;28;20032;-50
2022/07/28 05:38:51;;;;;;;3.85;1.95;;;;;;;25.53;35.24;98398.84;5074404;28;20414;-49
2022/07/28 05:41:17;;;;;;;7.57;2.20;;;;;;;25.78;34.75;98396.66;5074058;28;20020;-51
2022/07/28 05:43:43;;;;;;;4.28;2.08;;;;;;;26.15;34.24;98392.72;5074011;28;20032;-50
2022/07/28 05:46:08;;;;;;;8.60;1.75;;;;;;;26.69;33.26;98398.00;5073863;28;20025;-50
2022/07/28 05:48:37;;;;;;;7.05;2.08;;;;;;;27.05;32.44;98405.03;5073961;28;20048;-50
2022/07/28 05:51:03;;;;;;;16.13;2.30;;;;;;;27.28;31.93;98401.06;5073869;28;20017;-50
2022/07/28 05:53:31;;;;;;;8.57;2.45;;;;;;;27.61;31.43;98413.28;5055875;28;20081;-49
2022/07/28 05:55:57;;;;;;;9.60;2.53;;;;;;;28.11;31.35;98409.19;5073737;28;20025;-50
2022/07/28 05:58:23;;;;;;;18.65;3.03;;;;;;;28.90;30.29;98407.72;5073753;28;20021;-48
2022/07/28 06:00:49;;;;;;;7.85;2.10;;;;;;;29.66;28.72;98395.00;5055849;28;20104;-45
2022/07/28 06:03:14;;;;;;;8.82;1.88;;;;;;;30.09;28.04;98396.47;5073632;28;20451;-46
2022/07/28 06:05:40;;;;;;;22.23;2.33;;;;;;;30.31;27.37;98400.69;5072608;28;20082;-48
2022/07/28 06:08:06;;;;;;;19.63;3.03;;;;;;;30.62;27.30;98397.41;5055580;28;20128;-47
2022/07/28 06:13:17;;;;;;;29.52;4.22;;;;;;;31.94;25.90;98396.84;5073828;28;20035;-48
2022/07/28 06:15:46;;;;;;;57.67;4.85;;;;;;;32.34;25.25;98395.91;5073366;28;20024;-50
2022/07/28 06:18:12;;;;;;;105.35;8.95;;;;;;;33.16;24.64;98396.97;5073323;28;20107;-51
2022/07/28 06:20:38;;;;;;;80.75;8.45;;;;;;;33.61;24.07;98400.97;5055229;28;20028;-48
2022/07/28 06:23:04;;;;;;;44.50;5.10;;;;;;;33.53;23.60;98398.44;5073272;28;20017;-49
2022/07/28 06:25:30;;;;;;;23.98;2.92;;;;;;;33.22;24.36;98406.41;5048988;28;20111;-49
2022/07/28 06:27:58;;;;;;;49.50;5.22;;;;;;;33.63;23.85;98408.78;5053090;28;20108;-49
2022/07/28 06:30:26;;;;;;;28.60;3.00;;;;;;;33.45;23.38;98411.13;5053049;28;20028;-48
2022/07/28 06:32:51;;;;;;;55.45;5.55;;;;;;;33.48;23.56;98409.59;5053068;28;20025;-46
2022/07/28 06:35:17;;;;;;;35.30;3.88;;;;;;;33.61;23.39;98405.59;5053280;28;20079;-48
2022/07/28 06:37:48;;;;;;;16.85;2.58;;;;;;;34.03;22.67;98411.03;5052927;28;20029;-47
2022/07/28 06:40:15;;;;;;;52.90;4.95;;;;;;;34.31;22.71;98414.59;5052792;28;20040;-47
2022/07/28 06:42:42;;;;;;;61.05;5.65;;;;;;;34.80;22.45;98408.34;5034985;28;20550;-49
2022/07/28 06:45:09;;;;;;;64.45;5.13;;;;;;;35.35;21.58;98413.31;5052728;28;20043;-49
2022/07/28 06:47:35;;;;;;;43.25;4.03;;;;;;;35.50;21.38;98417.00;5052683;28;20032;-49
2022/07/28 06:50:02;;;;;;;20.10;2.90;;;;;;;35.76;21.03;98421.59;5034776;28;20398;-49
2022/07/28 06:52:27;;;;;;;19.35;3.08;;;;;;;36.18;20.71;98420.41;5052677;28;20020;-47
2022/07/28 06:54:53;;;;;;;14.52;2.20;;;;;;;36.02;20.49;98417.13;5052886;28;20056;-49
2022/07/28 06:57:20;;;;;;;12.50;2.38;;;;;;;36.47;20.21;98420.63;5052561;28;20459;-49
2022/07/28 06:59:47;;;;;;;10.20;2.22;;;;;;;36.78;19.65;98424.75;5052540;28;20067;-49
2022/07/28 07:02:14;;;;;;;12.77;2.00;;;;;;;37.16;19.76;98426.13;5052500;28;20509;-49
2022/07/28 07:04:39;;;;;;;34.92;4.38;;;;;;;37.23;19.10;98424.59;5052457;28;20078;-48
2022/07/28 07:07:05;;;;;;;13.57;2.78;;;;;;;36.94;19.68;98424.44;5052338;28;20033;-49
2022/07/28 07:09:32;;;;;;;23.35;3.47;;;;;;;36.69;19.73;98432.53;5052419;28;20021;-49
2022/07/28 07:11:58;;;;;;;9.05;1.90;;;;;;;36.75;19.82;98431.00;5052274;28;20070;-48
2022/07/28 07:14:24;;;;;;;6.28;1.65;;;;;;;37.23;19.01;98430.88;5052529;28;20394;-49
2022/07/28 07:16:49;;;;;;;11.70;2.03;;;;;;;37.61;18.55;98419.66;5052072;28;20036;-48
2022/07/28 07:19:16;;;;;;;13.43;2.33;;;;;;;37.52;19.08;98418.03;5052226;28;20449;-49
2022/07/28 07:21:41;;;;;;;8.48;2.10;;;;;;;37.65;18.75;98420.44;5034289;28;20542;-49
2022/07/28 07:24:10;;;;;;;4.88;1.70;;;;;;;37.78;18.15;98416.94;5052144;28;20111;-47
2022/07/28 07:26:36;;;;;;;58.72;7.45;;;;;;;37.72;18.74;98417.72;5066800;28;20052;-49
2022/07/28 07:29:03;;;;;;;21.00;2.58;;;;;;;37.37;19.15;98419.19;5072080;28;20024;-47
2022/07/28 07:31:28;;;;;;;7.40;1.80;;;;;;;36.97;19.04;98416.25;5071995;28;20107;-49
2022/07/28 07:33:54;;;;;;;11.02;2.13;;;;;;;36.85;19.13;98421.28;5072007;28;20605;-48
2022/07/28 07:36:20;;;;;;;14.23;2.85;;;;;;;36.94;19.91;98411.53;5053964;28;20402;-49
2022/07/28 07:38:46;;;;;;;11.93;2.22;;;;;;;37.02;19.57;98417.84;5071889;28;20016;-50
2022/07/28 07:41:12;;;;;;;18.58;2.80;;;;;;;37.09;19.59;98414.38;5071885;28;20402;-48
2022/07/28 07:43:37;;;;;;;16.60;2.53;;;;;;;37.21;19.65;98414.06;5053889;28;20023;-49
2022/07/28 07:46:06;;;;;;;13.65;2.33;;;;;;;37.49;18.70;98410.63;5071702;28;20537;-50
2022/07/28 07:48:31;;;;;;;24.95;3.15;;;;;;;37.24;19.20;98407.78;5071758;28;20071;-49
2022/07/28 07:50:57;;;;;;;29.83;3.50;;;;;;;36.98;18.98;98411.56;5071835;28;20114;-49
2022/07/28 07:53:23;;;;;;;16.95;2.65;;;;;;;37.16;19.30;98408.94;5053739;28;20052;-49
2022/07/28 07:55:50;;;;;;;25.25;3.42;;;;;;;37.67;18.72;98405.19;5071620;28;20032;-49
2022/07/28 07:58:15;;;;;;;57.95;5.80;;;;;;;37.50;18.99;98403.94;5071126;28;20064;-48
2022/07/28 08:00:41;;;;;;;11.75;2.00;;;;;;;36.93;18.95;98407.25;5053738;28;20125;-49
2022/07/28 08:03:07;;;;;;;15.68;1.80;;;;;;;37.43;18.62;98400.41;5053555;28;20029;-48
2022/07/28 08:05:32;;;;;;;31.20;3.38;;;;;;;38.02;18.16;98394.66;5071530;28;20037;-51
2022/07/28 08:07:58;;;;;;;12.80;2.38;;;;;;;38.00;18.56;98386.06;5071643;28;20095;-51
2022/07/28 08:10:24;;;;;;;15.77;4.65;;;;;;;38.12;18.16;98389.19;5071552;28;20086;-52
2022/07/28 08:12:50;;;;;;;14.45;2.80;;;;;;;37.86;18.52;98387.59;5071599;28;20219;-51
2022/07/28 08:15:15;;;;;;;15.98;2.40;;;;;;;37.93;18.50;98389.56;5071555;28;20469;-51
2022/07/28 08:17:41;;;;;;;21.20;3.25;;;;;;;37.96;18.33;98392.28;5037022;28;20031;-49
2022/07/28 08:20:07;;;;;;;21.70;2.50;;;;;;;37.97;18.11;98385.66;5071471;28;20544;-49
2022/07/28 08:22:33;;;;;;;16.75;2.97;;;;;;;38.41;18.07;98389.16;5071470;28;20032;-48
2022/07/28 08:25:00;;;;;;;22.65;2.65;;;;;;;38.40;18.04;98379.38;5071109;28;20398;-48
2022/07/28 08:27:28;;;;;;;18.95;2.88;;;;;;;38.40;17.65;98373.13;5053667;28;20456;-49
2022/07/28 08:29:54;;;;;;;18.48;3.00;;;;;;;39.03;17.93;98376.09;5057345;28;20023;-48
2022/07/28 08:32:20;;;;;;;39.35;3.33;;;;;;;39.62;16.93;98367.91;5075245;28;20024;-47
2022/07/28 08:34:45;;;;;;;18.90;2.90;;;;;;;39.77;16.62;98363.09;5075301;28;20103;-50
2022/07/28 08:37:11;;;;;;;12.93;3.25;;;;;;;40.42;15.71;98370.81;5057215;28;20060;-50
2022/07/28 08:39:37;;;;;;;14.93;1.90;;;;;;;40.87;15.38;98365.22;5075177;28;20035;-50
2022/07/28 08:42:34;;;;;;;19.77;2.53;;;;;;;41.03;15.29;98372.88;5075126;28;20020;-49
2022/07/28 08:45:06;;;;;;;14.02;2.50;;;;;;;41.07;15.17;98373.59;5075108;28;20031;-51
2022/07/28 08:47:34;;;;;;;14.93;2.35;;;;;;;41.45;14.83;98365.25;5075058;28;20042;-51
2022/07/28 08:50:00;;;;;;;8.48;2.10;;;;;;;41.19;15.35;98366.78;5075320;28;20020;-51
2022/07/28 08:52:32;;;;;;;12.88;2.40;;;;;;;41.68;15.03;98364.53;5075225;28;20394;-51
2022/07/28 08:55:05;;;;;;;12.18;2.47;;;;;;;41.50;14.80;98373.81;5057070;28;20078;-51
2022/07/28 08:57:39;;;;;;;43.28;4.63;;;;;;;41.25;15.32;98374.19;5057043;28;20035;-51
2022/07/28 09:00:06;;;;;;;210.98;16.33;;;;;;;41.71;15.21;98369.97;5074881;28;20182;-50
2022/07/28 09:02:41;;;;;;;32.40;3.58;;;;;;;42.17;14.46;98377.91;5074800;28;20028;-52
2022/07/28 09:05:08;;;;;;;49.42;4.47;;;;;;;41.40;15.38;98379.50;5074678;28;20044;-51
2022/07/28 09:07:40;;;;;;;17.70;2.67;;;;;;;41.25;15.15;98379.69;5056876;28;20025;-50
2022/07/28 09:10:07;;;;;;;18.90;2.33;;;;;;;42.04;14.47;98380.53;5074600;28;20024;-52
2022/07/28 09:12:34;;;;;;;14.98;2.25;;;;;;;42.22;14.45;98378.22;5074841;28;20398;-51
2022/07/28 09:15:04;;;;;;;9.60;2.13;;;;;;;41.62;14.90;98383.50;5074573;28;20024;-50
2022/07/28 09:17:32;;;;;;;11.25;1.90;;;;;;;41.88;14.82;98379.16;5074584;28;20024;-50
2022/07/28 09:19:57;;;;;;;28.40;2.78;;;;;;;42.43;14.04;98379.03;5056498;28;20094;-51
2022/07/28 09:22:23;;;;;;;12.50;1.90;;;;;;;42.47;13.75;98374.25;5074636;28;20485;-49
2022/07/28 09:24:49;;;;;;;13.65;2.35;;;;;;;42.00;14.54;98385.25;5056320;28;20521;-49
2022/07/28 09:27:15;;;;;;;9.65;2.00;;;;;;;41.95;14.48;98380.25;5054368;28;20411;-51
2022/07/28 09:29:45;;;;;;;30.83;2.60;;;;;;;42.54;14.39;98379.59;5054283;28;20021;-52
2022/07/28 09:32:15;;;;;;;29.52;3.38;;;;;;;43.06;14.27;98383.72;5054524;28;20064;-51
2022/07/28 09:34:45;;;;;;;11.75;1.63;;;;;;;43.58;13.41;98374.66;5036299;28;20025;-51
2022/07/28 09:37:18;;;;;;;5.82;2.00;;;;;;;42.82;14.14;98371.97;5036315;28;20029;-51
2022/07/28 09:39:46;;;;;;;12.70;2.30;;;;;;;42.77;14.15;98372.47;5052840;28;20025;-50
2022/07/28 09:42:12;;;;;;;17.55;2.65;;;;;;;43.05;13.64;98368.38;5054106;28;20025;-50
2022/07/28 09:44:38;;;;;;;19.75;3.10;;;;;;;43.36;13.40;98368.09;5054042;28;20090;-50
2022/07/28 09:47:27;;;;;;;11.10;2.03;;;;;;;43.86;13.11;98372.47;5053947;28;20024;-51
2022/07/28 09:49:53;;;;;;;10.23;1.80;;;;;;;43.88;12.99;98379.09;5053982;28;20111;-51
2022/07/28 09:52:31;;;;;;;10.65;2.03;;;;;;;44.36;12.36;98370.41;5053898;28;20018;-50
2022/07/28 09:54:59;;;;;;;10.63;1.80;;;;;;;44.65;12.27;98371.22;5035942;28;20029;-49
2022/07/28 09:57:29;;;;;;;19.48;2.80;;;;;;;44.78;12.21;98357.38;5053710;28;20029;-51
2022/07/28 09:59:55;;;;;;;12.35;1.65;;;;;;;44.63;12.47;98361.75;5053774;28;20025;-49
2022/07/28 10:02:32;;;;;;;14.60;2.00;;;;;;;44.51;12.72;98349.44;5053653;28;20556;-51
2022/07/28 10:04:59;;;;;;;25.17;3.08;;;;;;;43.90;13.03;98348.25;5035656;28;20037;-51
2022/07/28 10:07:30;;;;;;;23.88;2.50;;;;;;;43.45;13.02;98346.97;5053614;28;20043;-52
2022/07/28 10:10:01;;;;;;;16.00;3.67;;;;;;;43.81;12.98;98348.88;5053599;28;20056;-51
2022/07/28 10:12:30;;;;;;;16.38;2.40;;;;;;;43.61;12.98;98343.41;5053552;28;20050;-52
2022/07/28 10:14:59;;;;;;;9.10;2.03;;;;;;;43.42;12.97;98333.22;5035599;28;20036;-51
2022/07/28 10:17:30;;;;;;;7.88;1.50;;;;;;;43.96;12.76;98337.44;5053390;28;20029;-51
2022/07/28 10:20:02;;;;;;;7.50;1.50;;;;;;;43.80;12.64;98339.00;5019223;28;20025;-51
2022/07/28 10:22:32;;;;;;;10.15;1.75;;;;;;;43.57;13.19;98342.72;5035440;28;20029;-50
2022/07/28 10:25:05;;;;;;;9.25;1.50;;;;;;;43.24;12.97;98342.66;5054131;28;20056;-50
2022/07/28 10:27:32;;;;;;;10.27;1.58;;;;;;;43.40;13.06;98341.16;5073246;28;20038;-51
2022/07/28 10:30:00;;;;;;;20.17;3.10;;;;;;;43.82;12.77;98339.34;5073191;28;20029;-52
2022/07/28 10:32:30;;;;;;;11.00;2.05;;;;;;;43.84;12.48;98327.88;5073081;28;20021;-51
2022/07/28 10:35:02;;;;;;;13.60;1.90;;;;;;;43.84;12.14;98325.09;5073338;28;20025;-51
2022/07/28 10:37:30;;;;;;;8.43;2.07;;;;;;;44.11;12.36;98326.81;5055040;28;20059;-50
2022/07/28 10:40:06;;;;;;;26.13;3.88;;;;;;;44.07;12.23;98322.16;5072881;28;20020;-51
2022/07/28 10:42:32;;;;;;;29.05;2.42;;;;;;;43.76;12.50;98326.50;5054954;28;20502;-52
2022/07/28 10:44:58;;;;;;;12.57;2.05;;;;;;;43.58;11.95;98324.16;5072769;28;20016;-51
2022/07/28 10:47:26;;;;;;;15.63;2.13;;;;;;;43.73;11.98;98330.91;5054799;28;20024;-50
2022/07/28 10:49:55;;;;;;;30.00;2.67;;;;;;;44.32;11.63;98322.69;5072760;28;20020;-50
2022/07/28 10:52:23;;;;;;;33.75;5.05;;;;;;;44.67;11.52;98316.19;5072341;28;20043;-51
2022/07/28 10:55:00;;;;;;;36.67;3.92;;;;;;;44.71;11.39;98315.28;5072540;28;20017;-51
2022/07/28 10:57:28;;;;;;;24.08;4.45;;;;;;;44.22;11.95;98310.72;5072571;28;20060;-50
2022/07/28 11:00:15;;;;;;;25.88;2.47;;;;;;;43.32;12.46;98312.91;5072551;28;20024;-50
2022/07/28 11:02:45;;;;;;;40.38;3.80;;;;;;;42.62;13.37;98314.81;5072450;28;20079;-50
2022/07/28 11:05:35;;;;;;;9.63;1.98;;;;;;;42.86;12.90;98315.53;5054387;28;20029;-51
2022/07/28 11:08:07;;;;;;;22.50;2.75;;;;;;;42.57;12.87;98320.81;5072394;28;20028;-50
2022/07/28 11:10:48;;;;;;;28.33;3.08;;;;;;;42.42;13.64;98306.53;5072428;28;20028;-51
2022/07/28 11:13:25;;;;;;;26.98;3.08;;;;;;;41.98;13.51;98314.00;5072400;28;20111;-51
2022/07/28 11:15:51;;;;;;;4.68;1.40;;;;;;;41.72;14.14;98307.38;5072174;28;20444;-50
2022/07/28 11:18:17;;;;;;;13.75;1.67;;;;;;;41.67;13.85;98314.13;5072223;28;20036;-50
2022/07/28 11:20:51;;;;;;;22.33;2.75;;;;;;;41.35;14.14;98300.84;5072409;28;20513;-51
2022/07/28 11:23:40;;;;;;;13.48;1.60;;;;;;;41.67;14.15;98305.09;5054143;28;20020;-51
2022/07/28 11:26:33;;;;;;;20.83;3.63;;;;;;;42.23;13.95;98312.78;5053839;28;20044;-50
2022/07/28 11:28:59;;;;;;;22.77;2.60;;;;;;;42.42;13.42;98302.97;5072392;28;20028;-50
2022/07/28 11:31:42;;;;;;;23.98;2.25;;;;;;;42.78;13.16;98310.53;5072238;28;20032;-51
2022/07/28 11:34:12;;;;;;;14.32;2.30;;;;;;;43.04;13.36;98301.28;5072042;28;20481;-51
2022/07/28 11:37:11;;;;;;;20.45;2.13;;;;;;;43.44;12.75;98297.66;5071953;28;20033;-51
2022/07/28 11:39:44;;;;;;;41.65;4.15;;;;;;;43.02;13.39;98295.41;5039049;28;20060;-49
2022/07/28 11:42:31;;;;;;;37.20;4.05;;;;;;;41.64;14.01;98303.97;5071965;28;20032;-50